createdAt,value
2022-10-24T00:00:07.582Z,14.42
2022-10-24T00:03:09.290Z,14.38
2022-10-24T00:06:10.802Z,14.34
2022-10-24T00:09:12.172Z,14.37
2022-10-24T00:12:13.820Z,14.33
2022-10-24T00:15:15.233Z,14.33
2022-10-24T00:18:16.609Z,14.28
2022-10-24T00:21:17.940Z,14.38
2022-10-24T00:24:19.344Z,14.36
2022-10-24T00:27:21.484Z,14.32
2022-10-24T00:30:22.807Z,14.27
2022-10-24T00:33:24.156Z,14.25
2022-10-24T00:36:25.507Z,14.23
2022-10-24T00:39:26.901Z,14.25
2022-10-24T00:42:28.646Z,14.26
2022-10-24T00:45:33.468Z,14.23
2022-10-24T00:48:38.429Z,14.25
2022-10-24T00:51:39.808Z,14.30
2022-10-24T00:54:41.147Z,14.24
2022-10-24T00:57:44.154Z,14.23
2022-10-24T01:00:45.684Z,14.13
2022-10-24T01:03:47.083Z,14.11
2022-10-24T01:07:07.282Z,13.98
2022-10-24T01:10:11.983Z,13.93
2022-10-24T01:13:34.198Z,13.91
2022-10-24T01:16:48.812Z,13.92
2022-10-24T01:19:50.178Z,14.01
2022-10-24T01:23:10.453Z,14.02
2022-10-24T01:26:23.949Z,13.95
2022-10-24T01:29:43.971Z,13.89
2022-10-24T01:32:52.227Z,13.94
2022-10-24T01:35:53.532Z,13.86
2022-10-24T01:38:55.845Z,13.84
2022-10-24T01:41:57.522Z,13.84
2022-10-24T01:44:59.081Z,13.96
2022-10-24T01:48:01.137Z,14.03
2022-10-24T01:51:02.507Z,14.12
2022-10-24T01:54:04.304Z,14.26
2022-10-24T01:57:05.719Z,14.32
2022-10-24T02:00:07.802Z,14.33
2022-10-24T02:03:17.284Z,14.22
2022-10-24T02:06:32.167Z,14.07
2022-10-24T02:09:33.515Z,13.87
2022-10-24T02:12:34.854Z,13.66
2022-10-24T02:15:40.958Z,13.60
2022-10-24T02:18:42.310Z,13.49
2022-10-24T02:21:44.839Z,13.45
2022-10-24T02:25:04.688Z,13.62
2022-10-24T02:28:07.721Z,13.68
2022-10-24T02:31:17.423Z,13.70
2022-10-24T02:34:18.806Z,13.99
2022-10-24T02:37:20.205Z,14.23
2022-10-24T02:40:21.727Z,14.21
2022-10-24T02:43:23.415Z,14.13
2022-10-24T02:49:53.850Z,14.19
2022-10-24T02:52:55.209Z,14.22
2022-10-24T02:55:56.548Z,14.19
2022-10-24T02:58:58.008Z,14.14
2022-10-24T03:01:59.408Z,14.24
2022-10-24T03:05:00.764Z,14.47
2022-10-24T03:08:02.113Z,14.59
2022-10-24T03:11:03.511Z,14.68
2022-10-24T03:14:04.876Z,14.98
2022-10-24T03:17:06.214Z,14.95
2022-10-24T03:20:07.794Z,15.20
2022-10-24T03:23:09.171Z,15.23
2022-10-24T03:26:10.539Z,15.28
2022-10-24T03:29:14.112Z,15.15
2022-10-24T03:32:15.580Z,15.05
2022-10-24T03:35:16.941Z,15.10
2022-10-24T03:38:18.324Z,15.11
2022-10-24T03:41:19.871Z,15.24
2022-10-24T03:44:21.195Z,15.37
2022-10-24T03:47:23.013Z,15.32
2022-10-24T03:50:24.365Z,15.38
2022-10-24T03:53:25.720Z,15.39
2022-10-24T03:56:27.062Z,15.43
2022-10-24T03:59:28.395Z,15.49
2022-10-24T04:02:29.809Z,15.78
2022-10-24T04:05:31.179Z,16.02
2022-10-24T04:08:32.595Z,16.09
2022-10-24T04:11:33.972Z,15.94
2022-10-24T04:14:35.292Z,16.06
2022-10-24T04:17:36.759Z,16.17
2022-10-24T04:20:38.129Z,16.36
2022-10-24T04:23:41.218Z,16.43
2022-10-24T04:26:42.591Z,16.59
2022-10-24T04:29:43.912Z,17.01
2022-10-24T04:32:45.501Z,16.97
2022-10-24T04:35:47.592Z,17.38
2022-10-24T04:38:48.960Z,17.07
2022-10-24T04:41:50.386Z,16.67
2022-10-24T04:44:51.698Z,16.22
2022-10-24T04:47:53.058Z,16.06
2022-10-24T04:50:54.395Z,15.88
2022-10-24T04:53:55.716Z,15.72
2022-10-24T04:56:57.082Z,15.43
2022-10-24T04:59:58.436Z,14.76
2022-10-24T05:02:59.818Z,14.35
2022-10-24T05:06:01.268Z,14.06
2022-10-24T05:09:02.596Z,13.93
2022-10-24T05:12:04.861Z,13.89
2022-10-24T05:15:06.548Z,13.83
2022-10-24T05:18:07.924Z,13.74
2022-10-24T05:21:09.336Z,13.73
2022-10-24T05:24:10.648Z,13.66
2022-10-24T05:27:11.983Z,13.52
2022-10-24T05:30:13.638Z,13.45
2022-10-24T05:33:15.037Z,13.37
2022-10-24T05:36:16.406Z,13.29
2022-10-24T05:39:17.763Z,13.26
2022-10-24T05:42:19.213Z,13.19
2022-10-24T05:45:20.532Z,13.14
2022-10-24T05:48:21.933Z,13.12
2022-10-24T05:51:23.279Z,13.12
2022-10-24T05:54:30.076Z,13.11
2022-10-24T05:57:39.099Z,13.12
2022-10-24T06:00:40.433Z,13.10
2022-10-24T06:03:42.246Z,13.12
2022-10-24T06:06:43.931Z,13.06
2022-10-24T06:09:45.269Z,12.99
2022-10-24T06:12:46.894Z,12.97
2022-10-24T06:15:48.459Z,13.01
2022-10-24T06:18:49.837Z,13.04
2022-10-24T06:21:51.257Z,13.02
2022-10-24T06:24:52.576Z,13.03
2022-10-24T06:27:54.003Z,13.02
2022-10-24T06:30:55.485Z,13.04
2022-10-24T06:33:56.851Z,13.01
2022-10-24T06:36:58.196Z,12.97
2022-10-24T06:39:59.583Z,12.98
2022-10-24T06:43:00.954Z,12.95
2022-10-24T06:46:05.192Z,12.98
2022-10-24T06:49:06.768Z,12.98
2022-10-24T06:52:08.140Z,12.99
2022-10-24T06:55:09.554Z,12.98
2022-10-24T06:58:10.879Z,13.00
2022-10-24T07:01:13.328Z,13.01
2022-10-24T07:04:14.808Z,13.03
2022-10-24T07:07:16.800Z,13.04
2022-10-24T07:10:18.132Z,13.09
2022-10-24T07:13:19.501Z,13.03
2022-10-24T07:16:20.864Z,13.04
2022-10-24T07:19:22.175Z,13.02
2022-10-24T07:22:23.811Z,13.04
2022-10-24T07:25:25.151Z,13.10
2022-10-24T07:28:26.489Z,13.09
2022-10-24T07:31:28.864Z,13.12
2022-10-24T07:34:30.197Z,13.19
2022-10-24T07:37:31.576Z,13.24
2022-10-24T07:40:32.966Z,13.28
2022-10-24T07:43:34.312Z,13.33
2022-10-24T07:46:35.686Z,13.35
2022-10-24T07:49:37.084Z,13.34
2022-10-24T07:52:38.497Z,13.33
2022-10-24T07:55:40.232Z,13.34
2022-10-24T07:58:42.167Z,13.34
2022-10-24T08:01:43.538Z,13.37
2022-10-24T08:04:44.883Z,13.39
2022-10-24T08:07:56.272Z,13.48
2022-10-24T08:11:11.711Z,13.50
2022-10-24T08:14:13.118Z,13.54
2022-10-24T08:17:14.496Z,13.53
2022-10-24T08:20:16.098Z,13.58
2022-10-24T08:23:19.158Z,13.59
2022-10-24T08:26:23.844Z,13.59
2022-10-24T08:29:25.488Z,13.60
2022-10-24T08:32:26.825Z,13.60
2022-10-24T08:35:28.180Z,13.62
2022-10-24T08:38:29.661Z,13.65
2022-10-24T08:41:31.882Z,13.63
2022-10-24T08:44:35.540Z,13.64
2022-10-24T08:50:40.887Z,13.64
2022-10-24T08:53:42.201Z,13.65
2022-10-24T08:56:43.561Z,13.64
2022-10-24T08:59:44.902Z,13.65
2022-10-24T09:02:48.350Z,13.67
2022-10-24T09:05:51.383Z,13.69
2022-10-24T09:08:53.473Z,13.72
2022-10-24T09:11:55.984Z,13.77
2022-10-24T09:14:58.062Z,13.77
2022-10-24T09:17:59.501Z,13.82
2022-10-24T09:21:00.869Z,13.85
2022-10-24T09:24:02.228Z,13.86
2022-10-24T09:27:05.069Z,13.86
2022-10-24T09:30:07.670Z,13.86
2022-10-24T09:33:32.387Z,13.85
2022-10-24T09:36:33.772Z,13.89
2022-10-24T09:39:35.123Z,13.91
2022-10-24T09:42:37.966Z,13.93
2022-10-24T09:45:43.512Z,13.96
2022-10-24T09:48:46.135Z,13.95
2022-10-24T09:51:48.205Z,13.97
2022-10-24T09:55:08.282Z,14.02
2022-10-24T09:58:09.718Z,14.02
2022-10-24T10:01:14.263Z,14.04
2022-10-24T10:04:17.210Z,14.04
2022-10-24T10:07:19.289Z,14.06
2022-10-24T10:10:26.811Z,14.10
2022-10-24T10:13:28.610Z,14.13
2022-10-24T10:16:30.779Z,14.14
2022-10-24T10:19:33.051Z,14.13
2022-10-24T10:22:34.475Z,14.15
2022-10-24T10:25:35.828Z,14.26
2022-10-24T10:28:41.344Z,14.35
2022-10-24T10:31:46.980Z,14.46
2022-10-24T10:35:02.852Z,14.64
2022-10-24T10:38:10.193Z,14.79
2022-10-24T10:41:27.027Z,15.15
2022-10-24T10:44:48.143Z,15.38
2022-10-24T10:48:30.103Z,15.42
2022-10-24T10:51:31.384Z,15.46
2022-10-24T10:54:46.283Z,15.64
2022-10-24T10:58:02.824Z,15.77
2022-10-24T11:01:04.213Z,15.87
2022-10-24T11:04:17.570Z,15.91
2022-10-24T11:07:28.223Z,15.97
2022-10-24T11:10:32.376Z,15.97
2022-10-24T11:13:38.652Z,16.04
2022-10-24T11:16:40.028Z,16.11
2022-10-24T11:19:44.160Z,16.23
2022-10-24T11:22:46.824Z,16.21
2022-10-24T11:25:51.202Z,16.17
2022-10-24T11:28:54.442Z,16.21
2022-10-24T11:32:19.145Z,16.31
2022-10-24T11:35:33.283Z,16.40
2022-10-24T11:38:35.785Z,16.34
2022-10-24T11:41:42.225Z,16.40
2022-10-24T11:44:58.215Z,16.38
2022-10-24T11:48:05.986Z,16.60
2022-10-24T11:51:13.324Z,16.75
2022-10-24T11:54:30.274Z,16.94
2022-10-24T11:57:31.650Z,16.99
2022-10-24T12:00:33.977Z,17.18
2022-10-24T12:03:41.520Z,17.32
2022-10-24T12:07:01.696Z,17.19
2022-10-24T12:10:16.853Z,17.07
2022-10-24T12:13:38.123Z,17.24
2022-10-24T12:16:44.168Z,17.18
2022-10-24T12:19:45.566Z,17.40
2022-10-24T12:22:47.042Z,17.49
2022-10-24T12:25:48.886Z,17.33
2022-10-24T12:29:04.125Z,17.34
2022-10-24T12:32:31.770Z,17.31
2022-10-24T12:35:36.120Z,17.37
2022-10-24T12:38:37.403Z,17.37
2022-10-24T12:41:38.957Z,17.50
2022-10-24T12:44:41.258Z,17.71
2022-10-24T12:47:43.496Z,17.75
2022-10-24T12:50:44.967Z,17.75
2022-10-24T12:54:06.678Z,17.77
2022-10-24T12:57:08.921Z,17.77
2022-10-24T13:00:26.759Z,17.77
2022-10-24T13:03:37.406Z,17.74
2022-10-24T13:06:46.303Z,17.79
2022-10-24T13:09:55.507Z,17.68
2022-10-24T13:13:12.127Z,17.75
2022-10-24T13:16:19.886Z,17.82
2022-10-24T13:19:22.215Z,17.90
2022-10-24T13:22:27.603Z,17.72
2022-10-24T13:25:33.716Z,17.96
2022-10-24T13:28:36.056Z,18.19
2022-10-24T13:31:37.443Z,18.27
2022-10-24T13:34:52.331Z,18.28
2022-10-24T13:37:57.928Z,18.29
2022-10-24T13:41:02.080Z,18.23
2022-10-24T13:44:08.139Z,18.48
2022-10-24T13:47:17.156Z,18.48
2022-10-24T13:50:22.423Z,18.44
2022-10-24T13:53:29.736Z,18.95
2022-10-24T13:56:35.063Z,20.43
2022-10-24T13:59:39.539Z,20.75
2022-10-24T14:02:41.430Z,21.88
2022-10-24T14:05:47.516Z,22.35
2022-10-24T14:09:00.871Z,21.88
2022-10-24T14:12:05.509Z,21.97
2022-10-24T14:15:13.976Z,21.31
2022-10-24T14:18:15.371Z,20.40
2022-10-24T14:21:17.875Z,19.42
2022-10-24T14:24:20.300Z,18.63
2022-10-24T14:27:21.628Z,18.30
2022-10-24T14:30:23.879Z,18.06
2022-10-24T14:33:25.975Z,17.86
2022-10-24T14:36:31.108Z,17.80
2022-10-24T14:39:32.453Z,17.79
2022-10-24T14:42:33.937Z,17.69
2022-10-24T14:45:35.307Z,17.67
2022-10-24T14:48:36.726Z,17.44
2022-10-24T14:51:39.513Z,17.25
2022-10-24T14:54:42.390Z,17.14
2022-10-24T14:57:46.661Z,16.98
2022-10-24T15:00:48.023Z,16.85
2022-10-24T15:03:59.357Z,16.77
2022-10-24T15:07:04.873Z,16.79
2022-10-24T15:10:13.320Z,16.72
2022-10-24T15:13:15.988Z,16.79
2022-10-24T15:16:46.910Z,16.90
2022-10-24T15:19:48.294Z,16.99
2022-10-24T15:22:50.053Z,16.91
2022-10-24T15:25:58.735Z,16.96
2022-10-24T15:29:03.100Z,16.93
2022-10-24T15:32:05.495Z,16.82
2022-10-24T15:35:06.953Z,16.65
2022-10-24T15:38:12.710Z,16.70
2022-10-24T15:41:14.394Z,16.57
2022-10-24T15:44:21.882Z,16.48
2022-10-24T15:47:24.462Z,16.44
2022-10-24T15:50:25.852Z,16.41
2022-10-24T15:53:27.179Z,16.28
2022-10-24T15:56:28.531Z,16.38
2022-10-24T15:59:29.955Z,16.21
2022-10-24T16:02:31.306Z,16.05
2022-10-24T16:05:36.818Z,15.94
2022-10-24T16:08:38.203Z,15.85
2022-10-24T16:11:39.759Z,15.87
2022-10-24T16:14:41.149Z,15.79
2022-10-24T16:17:42.601Z,15.74
2022-10-24T16:20:44.104Z,15.57
2022-10-24T16:23:45.719Z,15.48
2022-10-24T16:26:47.130Z,15.39
2022-10-24T16:29:48.505Z,15.33
2022-10-24T16:32:49.999Z,15.25
2022-10-24T16:35:51.823Z,15.22
2022-10-24T16:38:53.165Z,15.17
2022-10-24T16:41:55.155Z,15.03
2022-10-24T16:44:56.698Z,15.01
2022-10-24T16:47:58.115Z,15.05
2022-10-24T16:50:59.623Z,14.94
2022-10-24T16:54:01.596Z,14.84
2022-10-24T16:57:03.939Z,14.71
2022-10-24T17:00:06.246Z,14.57
2022-10-24T17:03:07.839Z,14.40
2022-10-24T17:06:09.172Z,14.35
2022-10-24T17:09:10.497Z,14.32
2022-10-24T17:12:11.887Z,14.29
2022-10-24T17:15:14.901Z,14.25
2022-10-24T17:18:20.054Z,14.16
2022-10-24T17:21:27.746Z,14.12
2022-10-24T17:24:29.385Z,14.06
2022-10-24T17:27:30.809Z,14.22
2022-10-24T17:30:32.185Z,14.55
2022-10-24T17:33:36.234Z,14.68
2022-10-24T17:36:39.040Z,14.64
2022-10-24T17:39:45.668Z,14.59
2022-10-24T17:42:48.042Z,14.54
2022-10-24T17:45:49.933Z,14.44
2022-10-24T17:48:51.257Z,14.36
2022-10-24T17:51:52.620Z,14.31
2022-10-24T17:54:53.952Z,14.17
2022-10-24T17:57:55.334Z,14.15
2022-10-24T18:00:56.717Z,14.12
2022-10-24T18:03:58.093Z,14.12
2022-10-24T18:06:59.853Z,14.18
2022-10-24T18:10:01.201Z,14.15
2022-10-24T18:13:02.570Z,14.12
2022-10-24T18:16:10.521Z,13.99
2022-10-24T18:19:11.868Z,13.55
2022-10-24T18:22:13.356Z,13.45
2022-10-24T18:25:18.752Z,13.25
2022-10-24T18:28:23.254Z,13.09
2022-10-24T18:31:25.350Z,12.86
2022-10-24T18:34:26.814Z,12.74
2022-10-24T18:37:28.241Z,12.62
2022-10-24T18:40:30.082Z,12.46
2022-10-24T18:43:31.491Z,12.40
2022-10-24T18:46:32.895Z,12.37
2022-10-24T18:49:34.519Z,12.27
2022-10-24T18:52:54.669Z,12.15
2022-10-24T18:55:56.089Z,12.16
2022-10-24T18:58:57.800Z,12.16
2022-10-24T19:02:18.080Z,12.16
2022-10-24T19:05:19.548Z,12.05
2022-10-24T19:08:24.116Z,11.85
2022-10-24T19:11:25.565Z,11.77
2022-10-24T19:14:27.978Z,11.75
2022-10-24T19:17:29.402Z,11.67
2022-10-24T19:20:32.751Z,11.56
2022-10-24T19:23:34.127Z,11.64
2022-10-24T19:26:35.486Z,11.62
2022-10-24T19:29:36.824Z,11.52
2022-10-24T19:32:38.415Z,11.46
2022-10-24T19:35:41.764Z,11.47
2022-10-24T19:38:43.089Z,11.40
2022-10-24T19:41:44.463Z,11.38
2022-10-24T19:47:52.960Z,11.38
2022-10-24T19:50:54.347Z,11.35
2022-10-24T19:53:57.051Z,11.20
2022-10-24T19:56:58.412Z,11.11
2022-10-24T19:59:59.721Z,11.04
2022-10-24T20:03:01.088Z,10.97
2022-10-24T20:06:02.642Z,10.88
2022-10-24T20:09:04.174Z,10.75
2022-10-24T20:12:05.743Z,10.80
2022-10-24T20:15:07.411Z,10.78
2022-10-24T20:18:08.783Z,10.79
2022-10-24T20:21:10.999Z,10.66
2022-10-24T20:24:12.377Z,10.62
2022-10-24T20:27:13.788Z,10.54
2022-10-24T20:30:15.127Z,10.58
2022-10-24T20:33:16.475Z,10.43
2022-10-24T20:36:17.967Z,10.42
2022-10-24T20:39:21.095Z,10.28
2022-10-24T20:42:22.749Z,10.20
2022-10-24T20:45:24.120Z,10.14
2022-10-24T20:48:25.428Z,10.05
2022-10-24T20:51:26.754Z,9.99
2022-10-24T20:54:28.098Z,9.92
2022-10-24T20:57:29.547Z,9.87
2022-10-24T21:00:31.075Z,9.79
2022-10-24T21:03:32.587Z,9.72
2022-10-24T21:06:33.949Z,9.70
2022-10-24T21:09:35.296Z,9.66
2022-10-24T21:12:36.629Z,9.67
2022-10-24T21:15:38.092Z,9.69
2022-10-24T21:18:39.502Z,9.71
2022-10-24T21:21:40.889Z,9.60
2022-10-24T21:24:42.217Z,9.57
2022-10-24T21:27:43.690Z,9.56
2022-10-24T21:30:45.213Z,9.59
2022-10-24T21:33:46.540Z,9.50
2022-10-24T21:36:47.885Z,9.48
2022-10-24T21:39:49.196Z,9.43
2022-10-24T21:42:50.735Z,9.39
2022-10-24T21:45:52.096Z,9.40
2022-10-24T21:48:54.298Z,9.47
2022-10-24T21:51:55.673Z,9.49
2022-10-24T21:54:57.001Z,9.58
2022-10-24T21:57:58.356Z,9.54
2022-10-24T22:00:59.803Z,9.52
2022-10-24T22:04:01.339Z,9.53
2022-10-24T22:07:03.048Z,9.56
2022-10-24T22:10:04.520Z,9.59
2022-10-24T22:13:05.834Z,9.60
2022-10-24T22:16:07.662Z,9.57
2022-10-24T22:19:09.978Z,9.56
2022-10-24T22:22:11.328Z,9.57
2022-10-24T22:25:12.666Z,9.63
2022-10-24T22:28:14.340Z,9.54
2022-10-24T22:31:15.866Z,9.45
2022-10-24T22:34:18.119Z,9.48
2022-10-24T22:37:27.627Z,9.50
2022-10-24T22:40:29.985Z,9.49
2022-10-24T22:43:31.374Z,9.46
2022-10-24T22:46:45.703Z,9.39
2022-10-24T22:49:59.230Z,9.34
2022-10-24T22:53:00.736Z,9.34
2022-10-24T22:56:22.842Z,9.27
2022-10-24T22:59:24.240Z,9.21
2022-10-24T23:02:30.508Z,9.22
2022-10-24T23:05:35.090Z,9.23
2022-10-24T23:08:39.759Z,9.19
2022-10-24T23:11:41.245Z,9.21
2022-10-24T23:14:42.910Z,9.20
2022-10-24T23:17:44.685Z,9.18
2022-10-24T23:20:49.187Z,9.14
2022-10-24T23:23:50.696Z,9.20
2022-10-24T23:27:04.214Z,9.19
2022-10-24T23:30:15.783Z,9.28
2022-10-24T23:33:23.697Z,9.30
2022-10-24T23:36:27.905Z,9.28
2022-10-24T23:39:34.413Z,9.20
2022-10-24T23:42:35.821Z,9.17
2022-10-24T23:45:37.730Z,9.18
2022-10-24T23:48:39.030Z,9.22
2022-10-24T23:51:46.605Z,9.23
2022-10-24T23:54:48.039Z,9.20
2022-10-24T23:57:49.380Z,9.13
